createdAt,value
2017-09-29T00:00:41.914Z,67.8
2017-09-29T00:01:42.664Z,72.4
2017-09-29T00:02:43.443Z,71.1
2017-09-29T00:03:44.183Z,73.0
2017-09-29T00:05:47.289Z,69.8
2017-09-29T00:06:48.069Z,69.3
2017-09-29T00:07:48.884Z,76.2
2017-09-29T00:08:49.614Z,73.9
2017-09-29T00:09:50.756Z,72.0
2017-09-29T00:10:51.563Z,71.0
2017-09-29T00:11:52.304Z,73.5
2017-09-29T00:12:53.044Z,76.7
2017-09-29T00:13:53.815Z,76.8
2017-09-29T00:14:54.847Z,74.0
2017-09-29T00:15:55.664Z,80.7
2017-09-29T00:16:56.402Z,86.3
2017-09-29T00:17:57.143Z,82.6
2017-09-29T00:18:57.880Z,77.8
2017-09-29T00:19:59.015Z,78.2
2017-09-29T00:20:59.755Z,79.1
2017-09-29T00:22:00.555Z,76.5
2017-09-29T00:23:01.288Z,78.0
2017-09-29T00:24:02.037Z,75.5
2017-09-29T00:25:02.819Z,76.9
2017-09-29T00:26:03.605Z,69.7
2017-09-29T00:27:04.823Z,73.2
2017-09-29T00:28:05.586Z,74.9
2017-09-29T00:29:06.391Z,75.6
2017-09-29T00:30:07.117Z,77.9
2017-09-29T00:31:07.844Z,76.1
2017-09-29T00:32:08.984Z,75.6
2017-09-29T00:33:09.733Z,77.2
2017-09-29T00:34:10.465Z,73.0
2017-09-29T00:35:11.214Z,73.6
2017-09-29T00:36:11.964Z,68.3
2017-09-29T00:37:12.997Z,70.0
2017-09-29T00:38:13.788Z,69.2
2017-09-29T00:39:14.590Z,70.8
2017-09-29T00:40:15.319Z,69.5
2017-09-29T00:41:16.055Z,69.1
2017-09-29T00:42:16.864Z,70.0
2017-09-29T00:43:17.604Z,71.7
2017-09-29T00:44:18.355Z,69.8
2017-09-29T00:45:19.084Z,70.0
2017-09-29T00:46:19.822Z,74.5
2017-09-29T00:47:20.803Z,72.2
2017-09-29T00:48:21.537Z,71.1
2017-09-29T00:49:22.346Z,70.6
2017-09-29T00:50:23.144Z,73.3
2017-09-29T00:51:23.917Z,71.1
2017-09-29T00:52:24.947Z,69.5
2017-09-29T00:53:25.678Z,73.7
2017-09-29T00:54:26.468Z,67.7
2017-09-29T00:55:27.298Z,70.1
2017-09-29T00:56:28.085Z,74.5
2017-09-29T00:57:29.068Z,68.3
2017-09-29T00:58:29.888Z,73.1
2017-09-29T00:59:30.622Z,72.4
2017-09-29T01:00:31.361Z,70.0
2017-09-29T01:01:32.093Z,73.7
2017-09-29T01:02:33.215Z,71.0
2017-09-29T01:03:33.953Z,70.1
2017-09-29T01:04:34.763Z,72.6
2017-09-29T01:05:35.514Z,74.8
2017-09-29T01:06:36.861Z,78.8
2017-09-29T01:07:38.320Z,74.3
2017-09-29T01:08:39.111Z,77.3
2017-09-29T01:09:40.083Z,77.1
2017-09-29T01:10:40.918Z,73.5
2017-09-29T01:11:41.670Z,77.3
2017-09-29T01:12:42.742Z,77.1
2017-09-29T01:13:43.472Z,74.8
2017-09-29T01:14:44.223Z,75.2
2017-09-29T01:15:45.032Z,77.9
2017-09-29T01:16:45.760Z,82.0
2017-09-29T01:17:46.501Z,77.6
2017-09-29T01:18:47.252Z,72.1
2017-09-29T01:19:47.987Z,71.1
2017-09-29T01:20:48.718Z,77.9
2017-09-29T01:21:49.679Z,80.5
2017-09-29T01:22:50.471Z,76.5
2017-09-29T01:23:51.205Z,75.7
2017-09-29T01:24:51.930Z,77.3
2017-09-29T01:25:52.672Z,78.6
2017-09-29T01:26:53.406Z,74.8
2017-09-29T01:27:54.551Z,75.4
2017-09-29T01:28:55.290Z,75.0
2017-09-29T01:29:56.034Z,75.7
2017-09-29T01:30:56.771Z,73.6
2017-09-29T01:31:57.525Z,75.8
2017-09-29T01:32:58.247Z,79.3
2017-09-29T01:33:59.375Z,77.5
2017-09-29T01:35:00.151Z,76.8
2017-09-29T01:36:00.981Z,76.5
2017-09-29T01:37:01.760Z,77.9
2017-09-29T01:38:02.600Z,73.5
2017-09-29T01:39:03.732Z,75.0
2017-09-29T01:40:04.473Z,77.2
2017-09-29T01:41:05.263Z,82.1
2017-09-29T01:42:06.085Z,78.2
2017-09-29T01:43:06.849Z,77.6
2017-09-29T01:44:07.946Z,80.8
2017-09-29T01:45:08.680Z,76.0
2017-09-29T01:46:09.487Z,82.7
2017-09-29T01:47:10.232Z,78.9
2017-09-29T01:48:11.040Z,77.5
2017-09-29T01:49:12.169Z,81.3
2017-09-29T01:50:12.900Z,78.5
2017-09-29T01:51:13.721Z,80.3
2017-09-29T01:52:14.453Z,80.5
2017-09-29T01:53:15.187Z,81.5
2017-09-29T01:54:16.187Z,80.2
2017-09-29T01:55:16.919Z,81.0
2017-09-29T01:56:17.717Z,85.7
2017-09-29T01:57:18.450Z,86.2
2017-09-29T01:58:19.268Z,93.8
2017-09-29T01:59:20.199Z,88.6
2017-09-29T02:00:20.938Z,87.7
2017-09-29T02:01:21.678Z,88.4
2017-09-29T02:02:22.438Z,89.0
2017-09-29T02:03:23.218Z,88.4
2017-09-29T02:04:24.247Z,88.5
2017-09-29T02:05:24.998Z,88.1
2017-09-29T02:06:25.736Z,88.2
2017-09-29T02:07:26.468Z,87.6
2017-09-29T02:08:27.206Z,96.1
2017-09-29T02:09:28.299Z,92.3
2017-09-29T02:10:29.110Z,89.6
2017-09-29T02:11:29.897Z,92.8
2017-09-29T02:12:30.642Z,91.7
2017-09-29T02:13:31.458Z,85.9
2017-09-29T02:14:32.588Z,90.4
2017-09-29T02:15:33.333Z,95.1
2017-09-29T02:16:34.128Z,93.6
2017-09-29T02:17:34.860Z,98.4
2017-09-29T02:18:35.679Z,94.9
2017-09-29T02:19:36.820Z,94.8
2017-09-29T02:20:37.627Z,96.8
2017-09-29T02:21:38.362Z,99.6
2017-09-29T02:22:39.169Z,98.8
2017-09-29T02:23:39.978Z,103.8
2017-09-29T02:24:41.083Z,103.4
2017-09-29T02:25:41.819Z,103.4
2017-09-29T02:26:42.564Z,96.4
2017-09-29T02:27:43.373Z,104.0
2017-09-29T02:28:44.182Z,101.8
2017-09-29T02:29:45.288Z,98.8
2017-09-29T02:30:46.028Z,101.3
2017-09-29T02:31:46.778Z,106.7
2017-09-29T02:32:47.518Z,103.4
2017-09-29T02:33:48.291Z,100.7
2017-09-29T02:34:49.418Z,100.2
2017-09-29T02:35:50.159Z,107.9
2017-09-29T02:36:50.935Z,108.6
2017-09-29T02:37:51.668Z,105.5
2017-09-29T02:38:52.411Z,103.8
2017-09-29T02:39:53.419Z,109.6
2017-09-29T02:40:54.159Z,100.6
2017-09-29T02:41:54.901Z,106.8
2017-09-29T02:42:55.629Z,108.5
2017-09-29T02:43:56.386Z,103.8
2017-09-29T02:44:57.420Z,109.4
2017-09-29T02:45:58.150Z,104.2
2017-09-29T02:46:58.903Z,101.5
2017-09-29T02:47:59.633Z,106.2
2017-09-29T02:49:00.414Z,112.2
2017-09-29T02:50:01.218Z,106.3
2017-09-29T02:51:02.331Z,110.3
2017-09-29T02:52:03.070Z,109.6
2017-09-29T02:53:03.864Z,110.9
2017-09-29T02:54:04.613Z,113.4
2017-09-29T02:55:05.398Z,118.3
2017-09-29T02:56:06.529Z,114.4
2017-09-29T02:57:07.270Z,110.8
2017-09-29T02:58:08.037Z,109.7
2017-09-29T02:59:08.823Z,111.0
2017-09-29T03:00:09.613Z,104.8
2017-09-29T03:01:10.789Z,109.9
2017-09-29T03:02:11.533Z,103.4
2017-09-29T03:03:12.270Z,105.3
2017-09-29T03:04:13.001Z,109.9
2017-09-29T03:05:13.836Z,111.1
2017-09-29T03:06:14.878Z,106.5
2017-09-29T03:07:15.661Z,108.9
2017-09-29T03:08:16.482Z,104.7
2017-09-29T03:09:17.279Z,110.6
2017-09-29T03:10:18.020Z,113.4
2017-09-29T03:11:19.049Z,107.4
2017-09-29T03:12:19.790Z,106.6
2017-09-29T03:13:20.521Z,105.6
2017-09-29T03:14:21.330Z,104.4
2017-09-29T03:15:22.069Z,109.5
2017-09-29T03:16:23.259Z,104.4
2017-09-29T03:17:24.026Z,104.6
2017-09-29T03:18:24.831Z,105.5
2017-09-29T03:19:25.581Z,110.4
2017-09-29T03:20:26.351Z,104.4
2017-09-29T03:21:27.398Z,108.3
2017-09-29T03:22:28.164Z,107.0
2017-09-29T03:23:28.967Z,108.0
2017-09-29T03:24:29.729Z,110.0
2017-09-29T03:25:30.479Z,106.1
2017-09-29T03:26:31.541Z,105.6
2017-09-29T03:27:32.301Z,101.6
2017-09-29T03:28:33.020Z,102.1
2017-09-29T03:29:33.766Z,113.4
2017-09-29T03:30:34.576Z,102.5
2017-09-29T03:31:35.382Z,105.8
2017-09-29T03:32:36.111Z,126.9
2017-09-29T03:33:37.212Z,136.5
2017-09-29T03:34:37.960Z,110.9
2017-09-29T03:35:38.750Z,112.6
2017-09-29T03:36:39.480Z,110.4
2017-09-29T03:37:40.213Z,110.1
2017-09-29T03:38:41.029Z,109.2
2017-09-29T03:39:42.068Z,108.3
2017-09-29T03:40:42.870Z,105.5
2017-09-29T03:41:43.608Z,102.3
2017-09-29T03:42:44.321Z,107.8
2017-09-29T03:43:45.051Z,107.7
2017-09-29T03:44:45.779Z,107.4
2017-09-29T03:45:46.921Z,113.1
2017-09-29T03:46:47.661Z,112.7
2017-09-29T03:47:48.391Z,113.5
2017-09-29T03:48:49.193Z,116.9
2017-09-29T03:49:49.938Z,114.0
2017-09-29T03:50:51.074Z,114.0
2017-09-29T03:51:51.861Z,114.5
2017-09-29T03:52:52.614Z,112.3
2017-09-29T03:53:53.360Z,112.3
2017-09-29T03:54:54.143Z,116.8
2017-09-29T03:55:55.127Z,123.3
2017-09-29T03:56:55.871Z,113.5
2017-09-29T03:57:56.630Z,115.4
2017-09-29T03:58:57.371Z,117.5
2017-09-29T03:59:58.110Z,122.1
2017-09-29T04:00:58.847Z,120.8
2017-09-29T04:01:59.582Z,107.9
2017-09-29T04:03:00.681Z,116.6
2017-09-29T04:04:01.430Z,119.8
2017-09-29T04:05:02.172Z,122.6
2017-09-29T04:06:02.979Z,119.0
2017-09-29T04:07:03.726Z,117.4
2017-09-29T04:08:04.519Z,125.2
2017-09-29T04:09:05.655Z,119.6
2017-09-29T04:10:06.392Z,117.8
2017-09-29T04:11:07.146Z,122.5
2017-09-29T04:12:07.951Z,116.8
2017-09-29T04:13:08.793Z,118.0
2017-09-29T04:14:09.800Z,121.8
2017-09-29T04:15:10.592Z,122.0
2017-09-29T04:16:11.399Z,115.8
2017-09-29T04:17:12.137Z,120.6
2017-09-29T04:18:12.862Z,119.2
2017-09-29T04:19:14.000Z,116.4
2017-09-29T04:20:14.738Z,118.4
2017-09-29T04:21:15.489Z,127.3
2017-09-29T04:22:16.228Z,131.5
2017-09-29T04:23:16.974Z,121.3
2017-09-29T04:24:18.168Z,126.7
2017-09-29T04:25:18.900Z,122.4
2017-09-29T04:26:19.642Z,122.2
2017-09-29T04:27:20.426Z,121.8
2017-09-29T04:28:21.173Z,129.3
2017-09-29T04:29:22.198Z,124.2
2017-09-29T04:30:22.928Z,118.0
2017-09-29T04:31:23.667Z,123.3
2017-09-29T04:32:24.407Z,129.0
2017-09-29T04:33:25.209Z,128.7
2017-09-29T04:34:26.148Z,132.2
2017-09-29T04:35:26.948Z,126.5
2017-09-29T04:36:27.690Z,125.1
2017-09-29T04:37:28.469Z,132.3
2017-09-29T04:38:30.046Z,123.3
2017-09-29T04:39:31.126Z,128.7
2017-09-29T04:41:34.438Z,130.4
2017-09-29T04:42:35.106Z,122.7
2017-09-29T04:43:35.928Z,131.0
2017-09-29T04:44:37.010Z,121.3
2017-09-29T04:45:37.808Z,122.2
2017-09-29T04:46:38.618Z,126.6
2017-09-29T04:47:39.400Z,129.9
2017-09-29T04:48:40.161Z,127.3
2017-09-29T04:49:41.140Z,130.5
2017-09-29T04:50:41.880Z,127.7
2017-09-29T04:51:42.617Z,132.3
2017-09-29T04:52:43.349Z,131.6
2017-09-29T04:53:44.081Z,130.4
2017-09-29T04:54:45.199Z,133.7
2017-09-29T04:55:45.949Z,123.5
2017-09-29T04:56:46.772Z,124.4
2017-09-29T04:57:47.570Z,126.4
2017-09-29T04:58:48.319Z,112.0
2017-09-29T04:59:49.522Z,134.9
2017-09-29T05:00:50.327Z,130.0
2017-09-29T05:01:51.060Z,129.6
2017-09-29T05:02:51.858Z,132.7
2017-09-29T05:03:52.587Z,142.3
2017-09-29T05:04:53.628Z,140.3
2017-09-29T05:05:54.426Z,144.2
2017-09-29T05:06:55.158Z,139.7
2017-09-29T05:07:55.909Z,139.1
2017-09-29T05:08:56.667Z,138.5
2017-09-29T05:09:57.657Z,132.1
2017-09-29T05:10:58.387Z,137.9
2017-09-29T05:11:59.120Z,136.6
2017-09-29T05:12:59.908Z,135.2
2017-09-29T05:14:00.707Z,128.9
2017-09-29T05:15:01.756Z,137.5
2017-09-29T05:16:02.538Z,134.3
2017-09-29T05:17:03.307Z,138.3
2017-09-29T05:18:04.049Z,136.6
2017-09-29T05:19:04.860Z,136.5
2017-09-29T05:20:06.003Z,146.1
2017-09-29T05:21:06.798Z,149.2
2017-09-29T05:22:07.537Z,143.6
2017-09-29T05:23:08.276Z,149.2
2017-09-29T05:24:09.015Z,135.7
2017-09-29T05:25:09.764Z,141.1
2017-09-29T05:26:10.502Z,151.8
2017-09-29T05:27:11.258Z,151.3
2017-09-29T05:28:12.051Z,153.6
2017-09-29T05:29:13.149Z,145.1
2017-09-29T05:30:13.895Z,150.3
2017-09-29T05:31:14.657Z,149.7
2017-09-29T05:32:15.398Z,147.4
2017-09-29T05:33:16.138Z,146.3
2017-09-29T05:34:17.188Z,146.6
2017-09-29T05:35:17.998Z,143.0
2017-09-29T05:36:18.742Z,137.6
2017-09-29T05:37:19.478Z,137.1
2017-09-29T05:38:20.218Z,139.4
2017-09-29T05:39:21.248Z,142.0
2017-09-29T05:40:22.058Z,131.0
2017-09-29T05:41:22.877Z,139.1
2017-09-29T05:42:23.640Z,140.8
2017-09-29T05:43:24.448Z,128.2
2017-09-29T05:44:25.488Z,137.4
2017-09-29T05:45:26.307Z,132.3
2017-09-29T05:46:27.052Z,136.1
2017-09-29T05:47:27.848Z,125.0
2017-09-29T05:48:28.595Z,123.5
2017-09-29T05:49:29.648Z,129.2
2017-09-29T05:50:30.380Z,131.3
2017-09-29T05:51:31.199Z,131.0
2017-09-29T05:52:31.929Z,127.8
2017-09-29T05:53:32.682Z,131.4
2017-09-29T05:54:33.869Z,125.5
2017-09-29T05:55:34.610Z,126.0
2017-09-29T05:56:35.349Z,132.0
2017-09-29T05:57:36.081Z,136.7
2017-09-29T05:58:36.819Z,133.8
2017-09-29T05:59:37.571Z,127.5
2017-09-29T06:00:38.766Z,128.4
2017-09-29T06:01:39.509Z,133.5
2017-09-29T06:02:40.247Z,132.8
2017-09-29T06:03:41.029Z,137.9
2017-09-29T06:04:41.776Z,132.1
2017-09-29T06:05:42.959Z,126.9
2017-09-29T06:06:43.722Z,125.7
2017-09-29T06:07:44.509Z,133.4
2017-09-29T06:08:45.242Z,133.8
2017-09-29T06:09:45.984Z,132.6
2017-09-29T06:10:47.092Z,131.1
2017-09-29T06:11:47.869Z,133.9
2017-09-29T06:12:48.616Z,137.5
2017-09-29T06:13:49.296Z,134.4
2017-09-29T06:14:50.029Z,127.8
2017-09-29T06:15:51.070Z,128.1
2017-09-29T06:16:51.890Z,127.4
2017-09-29T06:17:52.633Z,134.0
2017-09-29T06:18:53.378Z,130.7
2017-09-29T06:19:54.126Z,130.3
2017-09-29T06:20:54.870Z,132.4
2017-09-29T06:21:55.620Z,132.6
2017-09-29T06:22:56.560Z,124.6
2017-09-29T06:23:57.312Z,121.8
2017-09-29T06:24:58.093Z,130.7
2017-09-29T06:25:58.834Z,125.6
2017-09-29T06:26:59.651Z,131.1
2017-09-29T06:28:00.642Z,136.9
2017-09-29T06:29:01.399Z,128.6
2017-09-29T06:30:02.129Z,128.2
2017-09-29T06:31:02.922Z,122.4
2017-09-29T06:32:03.666Z,129.5
2017-09-29T06:33:04.880Z,123.7
2017-09-29T06:34:05.641Z,115.1
2017-09-29T06:35:06.542Z,118.6
2017-09-29T06:36:07.433Z,127.1
2017-09-29T06:37:08.178Z,123.8
2017-09-29T06:38:09.405Z,120.8
2017-09-29T06:39:10.802Z,119.7
2017-09-29T06:40:11.499Z,117.4
2017-09-29T06:41:12.301Z,120.3
2017-09-29T06:42:13.040Z,121.1
2017-09-29T06:43:13.786Z,120.0
2017-09-29T06:44:14.581Z,120.4
2017-09-29T06:45:15.691Z,124.6
2017-09-29T06:46:16.433Z,121.8
2017-09-29T06:47:17.262Z,121.1
2017-09-29T06:48:18.084Z,124.3
2017-09-29T06:49:18.827Z,121.1
2017-09-29T06:50:20.011Z,112.8
2017-09-29T06:51:20.778Z,117.0
2017-09-29T06:52:21.544Z,110.5
2017-09-29T06:53:22.377Z,109.2
2017-09-29T06:54:23.193Z,112.0
2017-09-29T06:55:24.334Z,106.3
2017-09-29T06:56:25.074Z,92.8
2017-09-29T06:57:25.916Z,84.2
2017-09-29T06:58:26.723Z,76.8
2017-09-29T06:59:27.448Z,71.2
2017-09-29T07:00:28.443Z,68.5
2017-09-29T07:01:29.187Z,64.5
2017-09-29T07:02:29.922Z,69.9
2017-09-29T07:03:30.712Z,70.4
2017-09-29T07:04:31.452Z,72.5
2017-09-29T07:05:32.450Z,72.2
2017-09-29T07:06:33.222Z,67.8
2017-09-29T07:07:33.971Z,69.9
2017-09-29T07:08:34.781Z,69.6
2017-09-29T07:09:35.518Z,72.6
2017-09-29T07:10:36.461Z,70.5
2017-09-29T07:11:37.193Z,70.7
2017-09-29T07:12:37.923Z,72.9
2017-09-29T07:13:38.740Z,72.8
2017-09-29T07:14:39.482Z,71.9
2017-09-29T07:15:40.530Z,68.2
2017-09-29T07:16:41.281Z,59.4
2017-09-29T07:17:42.062Z,58.6
2017-09-29T07:18:42.889Z,54.5
2017-09-29T07:19:43.630Z,49.7
2017-09-29T07:20:44.808Z,48.7
2017-09-29T07:21:45.513Z,46.8
2017-09-29T07:22:46.349Z,43.0
2017-09-29T07:23:47.087Z,43.5
2017-09-29T07:24:47.830Z,43.0
2017-09-29T07:25:48.575Z,41.9
2017-09-29T07:26:49.390Z,40.6
2017-09-29T07:27:50.533Z,41.0
2017-09-29T07:28:51.351Z,39.0
2017-09-29T07:29:52.091Z,37.5
2017-09-29T07:30:52.829Z,37.1
2017-09-29T07:31:53.570Z,37.5
2017-09-29T07:32:54.715Z,38.5
2017-09-29T07:33:55.457Z,38.4
2017-09-29T07:34:56.213Z,38.6
2017-09-29T07:35:57.023Z,37.1
2017-09-29T07:36:57.820Z,35.4
2017-09-29T07:37:58.966Z,35.7
2017-09-29T07:38:59.743Z,35.4
2017-09-29T07:40:01.139Z,33.8
2017-09-29T07:41:03.099Z,34.2
2017-09-29T07:42:04.112Z,35.4
2017-09-29T07:43:05.263Z,33.5
2017-09-29T07:44:06.090Z,33.1
2017-09-29T07:45:06.849Z,34.9
2017-09-29T07:46:07.605Z,33.9
2017-09-29T07:47:09.445Z,34.8
2017-09-29T07:48:10.467Z,34.4
2017-09-29T07:49:11.628Z,35.6
2017-09-29T07:50:12.364Z,34.0
2017-09-29T07:51:13.209Z,30.5
2017-09-29T07:52:13.948Z,31.6
2017-09-29T07:53:14.698Z,31.2
2017-09-29T07:54:15.676Z,29.7
2017-09-29T07:55:16.487Z,29.1
2017-09-29T07:56:17.228Z,27.4
2017-09-29T07:57:18.003Z,26.8
2017-09-29T07:58:18.929Z,28.4
2017-09-29T07:59:20.118Z,27.1
2017-09-29T08:00:20.863Z,25.8
2017-09-29T08:01:21.678Z,26.0
2017-09-29T08:02:22.421Z,27.2
2017-09-29T08:03:23.243Z,26.5
2017-09-29T08:04:24.038Z,26.8
2017-09-29T08:05:24.790Z,27.1
2017-09-29T08:06:25.546Z,27.7
2017-09-29T08:07:26.710Z,27.0
2017-09-29T08:08:27.460Z,26.4
2017-09-29T08:09:28.238Z,25.8
2017-09-29T08:10:29.559Z,25.6
2017-09-29T08:11:30.636Z,25.6
2017-09-29T08:12:32.013Z,25.8
2017-09-29T08:13:32.774Z,25.7
2017-09-29T08:14:33.513Z,26.5
2017-09-29T08:15:34.336Z,25.0
2017-09-29T08:16:35.137Z,24.8
2017-09-29T08:17:36.110Z,24.7
2017-09-29T08:18:36.937Z,26.2
2017-09-29T08:19:37.688Z,24.7
2017-09-29T08:20:38.508Z,24.0
2017-09-29T08:21:39.248Z,23.7
2017-09-29T08:22:39.989Z,23.3
2017-09-29T08:23:40.809Z,25.5
2017-09-29T08:24:41.830Z,24.2
2017-09-29T08:25:42.580Z,23.1
2017-09-29T08:26:43.328Z,24.6
2017-09-29T08:27:44.138Z,24.7
2017-09-29T08:28:44.882Z,25.4
2017-09-29T08:29:45.837Z,24.3
2017-09-29T08:30:46.643Z,23.7
2017-09-29T08:31:47.395Z,24.9
2017-09-29T08:32:48.131Z,24.3
2017-09-29T08:33:48.936Z,24.7
2017-09-29T08:34:50.080Z,25.0
2017-09-29T08:35:50.896Z,24.5
2017-09-29T08:36:51.641Z,23.0
2017-09-29T08:37:52.478Z,24.4
2017-09-29T08:38:53.231Z,23.1
2017-09-29T08:39:54.284Z,24.1
2017-09-29T08:40:55.030Z,24.1
2017-09-29T08:41:55.847Z,24.2
2017-09-29T08:42:56.595Z,23.7
2017-09-29T08:43:57.344Z,24.2
2017-09-29T08:44:58.415Z,25.4
2017-09-29T08:46:00.337Z,24.9
2017-09-29T08:47:01.321Z,25.4
2017-09-29T08:48:02.090Z,24.3
2017-09-29T08:49:02.827Z,24.2
2017-09-29T08:50:03.876Z,24.0
2017-09-29T08:51:04.707Z,24.0
2017-09-29T08:52:05.457Z,22.1
2017-09-29T08:53:06.214Z,24.0
2017-09-29T08:54:06.997Z,23.8
2017-09-29T08:55:08.089Z,25.3
2017-09-29T08:56:09.079Z,24.4
2017-09-29T08:57:09.779Z,25.8
2017-09-29T08:58:10.503Z,24.7
2017-09-29T08:59:12.325Z,26.7
2017-09-29T09:00:14.100Z,26.1
2017-09-29T09:01:14.851Z,26.6
2017-09-29T09:02:15.723Z,24.6
2017-09-29T09:03:16.522Z,26.4
2017-09-29T09:04:17.344Z,25.7
2017-09-29T09:05:18.385Z,25.6
2017-09-29T09:06:20.107Z,25.8
2017-09-29T09:07:21.167Z,27.1
2017-09-29T09:08:21.946Z,24.9
2017-09-29T09:09:22.653Z,25.3
2017-09-29T09:10:23.401Z,25.5
2017-09-29T09:11:24.509Z,25.8
2017-09-29T09:12:25.299Z,26.3
2017-09-29T09:13:26.051Z,28.1
2017-09-29T09:14:26.874Z,26.6
2017-09-29T09:15:27.619Z,25.3
2017-09-29T09:16:28.569Z,25.6
2017-09-29T09:17:29.365Z,25.0
2017-09-29T09:18:30.173Z,25.7
2017-09-29T09:19:30.970Z,26.0
2017-09-29T09:20:31.780Z,25.3
2017-09-29T09:21:32.865Z,25.3
2017-09-29T09:22:33.623Z,26.1
2017-09-29T09:23:34.414Z,25.7
2017-09-29T09:24:35.160Z,25.5
2017-09-29T09:25:35.935Z,26.2
2017-09-29T09:26:37.120Z,27.2
2017-09-29T09:27:37.908Z,27.6
2017-09-29T09:28:38.742Z,25.9
2017-09-29T09:29:39.599Z,25.9
2017-09-29T09:30:40.308Z,27.0
2017-09-29T09:31:41.154Z,27.0
2017-09-29T09:32:41.973Z,26.4
2017-09-29T09:33:42.796Z,27.8
2017-09-29T09:34:43.834Z,26.6
2017-09-29T09:35:44.574Z,27.6
2017-09-29T09:36:45.334Z,28.0
2017-09-29T09:37:46.140Z,26.9
2017-09-29T09:38:46.893Z,27.0
2017-09-29T09:39:48.058Z,26.4
2017-09-29T09:40:48.810Z,26.6
2017-09-29T09:41:49.602Z,28.1
2017-09-29T09:42:50.342Z,27.2
2017-09-29T09:43:51.087Z,27.9
2017-09-29T09:44:51.874Z,27.9
2017-09-29T09:45:53.041Z,27.3
2017-09-29T09:46:53.842Z,26.5
2017-09-29T09:47:54.573Z,28.1
2017-09-29T09:48:55.401Z,27.0
2017-09-29T09:49:56.142Z,26.6
2017-09-29T09:50:57.192Z,27.1
2017-09-29T09:51:57.943Z,27.4
2017-09-29T09:52:58.687Z,27.8
2017-09-29T09:53:59.434Z,26.8
2017-09-29T09:55:00.237Z,25.3
2017-09-29T09:56:01.376Z,26.4
2017-09-29T09:57:02.128Z,26.7
2017-09-29T09:58:02.871Z,27.2
2017-09-29T09:59:03.673Z,27.1
2017-09-29T10:00:04.408Z,25.8
2017-09-29T10:01:05.639Z,25.9
2017-09-29T10:02:06.372Z,24.9
2017-09-29T10:03:07.124Z,27.0
2017-09-29T10:04:07.938Z,26.0
2017-09-29T10:05:08.754Z,25.8
2017-09-29T10:06:09.811Z,26.5
2017-09-29T10:07:10.620Z,25.4
2017-09-29T10:08:11.432Z,26.0
2017-09-29T10:09:12.165Z,25.9
2017-09-29T10:10:12.909Z,25.9
2017-09-29T10:11:13.908Z,26.1
2017-09-29T10:12:14.651Z,26.6
2017-09-29T10:13:15.410Z,26.0
2017-09-29T10:14:16.218Z,26.4
2017-09-29T10:15:17.038Z,24.6
2017-09-29T10:16:17.779Z,25.6
2017-09-29T10:17:18.618Z,25.5
2017-09-29T10:18:19.415Z,25.3
2017-09-29T10:19:20.157Z,23.7
2017-09-29T10:20:20.891Z,27.5
2017-09-29T10:21:21.885Z,25.8
2017-09-29T10:22:22.672Z,25.3
2017-09-29T10:23:23.422Z,25.5
2017-09-29T10:24:24.160Z,26.3
2017-09-29T10:25:24.900Z,26.2
2017-09-29T10:26:26.005Z,27.1
2017-09-29T10:27:26.809Z,27.0
2017-09-29T10:28:27.560Z,26.3
2017-09-29T10:29:28.374Z,25.8
2017-09-29T10:30:29.111Z,26.3
2017-09-29T10:31:30.202Z,26.5
2017-09-29T10:32:30.951Z,26.5
2017-09-29T10:33:31.786Z,25.6
2017-09-29T10:34:32.591Z,26.8
2017-09-29T10:35:33.412Z,25.5
2017-09-29T10:36:34.550Z,24.4
2017-09-29T10:37:35.515Z,24.7
2017-09-29T10:38:36.219Z,24.4
2017-09-29T10:39:36.963Z,24.7
2017-09-29T10:40:37.776Z,24.5
2017-09-29T10:41:38.820Z,25.0
2017-09-29T10:42:39.638Z,24.9
2017-09-29T10:43:40.367Z,24.1
2017-09-29T10:44:41.115Z,23.8
2017-09-29T10:45:41.923Z,24.8
2017-09-29T10:46:43.000Z,23.4
2017-09-29T10:47:43.748Z,23.4
2017-09-29T10:48:44.501Z,22.9
2017-09-29T10:49:45.277Z,22.0
2017-09-29T10:50:46.017Z,23.0
2017-09-29T10:51:46.763Z,23.0
2017-09-29T10:52:47.591Z,22.5
2017-09-29T10:53:48.406Z,23.2
2017-09-29T10:54:49.193Z,22.6
2017-09-29T10:55:50.293Z,22.3
2017-09-29T10:56:51.043Z,22.1
2017-09-29T10:57:51.789Z,22.4
2017-09-29T10:58:52.527Z,22.0
2017-09-29T10:59:53.265Z,20.9
2017-09-29T11:00:53.997Z,20.6
2017-09-29T11:01:55.134Z,19.5
2017-09-29T11:02:56.859Z,19.3
2017-09-29T11:03:58.798Z,21.4
2017-09-29T11:04:59.765Z,21.6
2017-09-29T11:06:00.532Z,22.1
2017-09-29T11:07:01.507Z,19.9
2017-09-29T11:08:02.252Z,19.6
2017-09-29T11:09:03.897Z,19.3
2017-09-29T11:10:04.634Z,20.0
2017-09-29T11:11:05.437Z,19.8
2017-09-29T11:12:06.488Z,19.6
2017-09-29T11:13:07.236Z,20.0
2017-09-29T11:14:07.981Z,20.0
2017-09-29T11:15:08.718Z,19.7
2017-09-29T11:16:09.538Z,20.4
2017-09-29T11:17:12.018Z,20.9
2017-09-29T11:18:13.061Z,19.9
2017-09-29T11:19:13.882Z,20.9
2017-09-29T11:20:14.678Z,22.2
2017-09-29T11:21:15.539Z,21.4
2017-09-29T11:22:16.559Z,21.0
2017-09-29T11:23:17.376Z,21.2
2017-09-29T11:24:18.157Z,21.2
2017-09-29T11:25:18.902Z,19.7
2017-09-29T11:26:19.648Z,20.8
2017-09-29T11:27:20.792Z,21.0
2017-09-29T11:28:21.587Z,21.1
2017-09-29T11:29:22.325Z,20.5
2017-09-29T11:30:23.148Z,19.6
2017-09-29T11:31:23.952Z,20.5
2017-09-29T11:32:25.063Z,19.7
2017-09-29T11:33:25.820Z,19.5
2017-09-29T11:34:26.622Z,18.3
2017-09-29T11:35:27.411Z,17.4
2017-09-29T11:36:28.154Z,17.5
2017-09-29T11:37:29.533Z,18.1
2017-09-29T11:38:30.292Z,17.9
2017-09-29T11:39:31.041Z,19.9
2017-09-29T11:40:31.852Z,20.9
2017-09-29T11:41:32.670Z,20.4
2017-09-29T11:42:33.717Z,19.3
2017-09-29T11:43:34.533Z,20.9
2017-09-29T11:44:35.340Z,21.4
2017-09-29T11:45:36.078Z,21.1
2017-09-29T11:46:36.822Z,19.4
2017-09-29T11:47:37.937Z,19.5
2017-09-29T11:48:38.719Z,18.8
2017-09-29T11:49:39.528Z,18.4
2017-09-29T11:50:40.265Z,19.9
2017-09-29T11:51:41.004Z,19.2
2017-09-29T11:52:41.965Z,18.0
2017-09-29T11:53:42.750Z,19.5
2017-09-29T11:54:43.500Z,18.3
2017-09-29T11:55:44.320Z,19.5
2017-09-29T11:56:45.073Z,18.4
2017-09-29T11:57:46.281Z,17.4
2017-09-29T11:58:47.020Z,16.5
2017-09-29T11:59:47.769Z,16.6
2017-09-29T12:00:48.526Z,16.1
2017-09-29T12:01:49.333Z,16.7
2017-09-29T12:02:50.493Z,15.2
2017-09-29T12:03:51.306Z,15.1
2017-09-29T12:04:52.135Z,15.3
2017-09-29T12:05:52.945Z,14.4
2017-09-29T12:06:53.746Z,15.4
2017-09-29T12:07:54.939Z,16.6
2017-09-29T12:08:55.696Z,16.2
2017-09-29T12:09:56.510Z,15.8
2017-09-29T12:10:57.262Z,14.6
2017-09-29T12:11:58.084Z,14.4
2017-09-29T12:12:58.837Z,14.8
2017-09-29T12:13:59.561Z,13.5
2017-09-29T12:15:00.305Z,14.7
2017-09-29T12:16:01.049Z,14.8
2017-09-29T12:17:01.786Z,14.9
2017-09-29T12:18:02.823Z,15.8
2017-09-29T12:19:03.632Z,15.0
2017-09-29T12:20:04.398Z,14.8
2017-09-29T12:21:05.171Z,15.4
2017-09-29T12:22:05.926Z,14.4
2017-09-29T12:23:07.083Z,14.1
2017-09-29T12:24:07.824Z,13.4
2017-09-29T12:25:09.656Z,13.4
2017-09-29T12:26:10.714Z,14.1
2017-09-29T12:27:11.429Z,12.1
2017-09-29T12:28:12.642Z,12.3
2017-09-29T12:29:13.374Z,12.5
2017-09-29T12:30:14.192Z,12.9
2017-09-29T12:31:14.953Z,15.3
2017-09-29T12:32:15.741Z,15.0
2017-09-29T12:33:16.753Z,15.7
2017-09-29T12:34:17.523Z,16.8
2017-09-29T12:35:18.335Z,15.8
2017-09-29T12:36:19.131Z,16.2
2017-09-29T12:37:19.946Z,14.7
2017-09-29T12:38:21.221Z,15.3
2017-09-29T12:39:22.007Z,16.0
2017-09-29T12:40:22.879Z,15.6
2017-09-29T12:41:23.654Z,16.3
2017-09-29T12:42:24.402Z,16.5
2017-09-29T12:43:25.217Z,17.2
2017-09-29T12:44:26.483Z,15.7
2017-09-29T12:45:27.231Z,15.7
2017-09-29T12:46:27.992Z,15.5
2017-09-29T12:47:28.740Z,15.4
2017-09-29T12:48:29.493Z,14.8
2017-09-29T12:49:30.653Z,14.6
2017-09-29T12:50:31.394Z,14.2
2017-09-29T12:51:32.190Z,14.1
2017-09-29T12:52:32.950Z,13.7
2017-09-29T12:53:33.691Z,14.6
2017-09-29T12:54:34.685Z,14.9
2017-09-29T12:55:35.462Z,13.8
2017-09-29T12:56:36.274Z,14.9
2017-09-29T12:57:37.044Z,13.7
2017-09-29T12:58:37.872Z,13.7
2017-09-29T12:59:39.161Z,14.7
2017-09-29T13:00:39.960Z,14.7
2017-09-29T13:01:40.708Z,14.2
2017-09-29T13:02:41.448Z,13.2
2017-09-29T13:03:42.216Z,13.5
2017-09-29T13:04:42.958Z,13.0
2017-09-29T13:05:44.001Z,13.1
2017-09-29T13:06:44.749Z,13.9
2017-09-29T13:07:45.508Z,14.1
2017-09-29T13:08:46.252Z,14.0
2017-09-29T13:09:47.048Z,13.7
2017-09-29T13:10:48.178Z,13.9
2017-09-29T13:11:48.930Z,13.6
2017-09-29T13:12:49.728Z,12.7
2017-09-29T13:13:50.480Z,13.7
2017-09-29T13:14:51.308Z,13.5
2017-09-29T13:15:52.134Z,12.3
2017-09-29T13:16:52.939Z,12.6
2017-09-29T13:17:54.168Z,12.6
2017-09-29T13:18:55.009Z,12.8
2017-09-29T13:19:55.780Z,13.1
2017-09-29T13:20:56.509Z,11.0
2017-09-29T13:21:57.254Z,12.1
2017-09-29T13:22:58.447Z,13.2